Sitc Kaohsiung — 3EKK6 — position and weather

sailwx.info

Track history (hours):
 
Tides and Currents Weather Stations Pressure Air Temp Water Temp Dewpoint Dewpoint Depression Visibility Wind Speed Wind Dir Waves Ship Positions

Sitc Kaohsiung

Last reported at 2018-Feb-20 22:58 UTC. Time now 2018-Feb-20 23:27 UTC.
Position N 35°36' E 139°46'.

Length 140 m; draft 6.8 m.

Type: Ship (hazmat cat A). MMSI: 372748000.

Date/timePositionNaut miles runAvg speedWind from/ knotsBaromVisibWave heightAir tempDewpointWater temp
2018-Feb-20 22:58N 35°36' E 139°46'4 9.2
2018-Feb-20 22:30N 35°33' E 139°50'5 9.8
2018-Feb-20 22:00N 35°28' E 139°51'713.5
2018-Feb-20 21:30N 35°23' E 139°46'611.8
2018-Feb-20 21:00N 35°17' E 139°45'612.3
2018-Feb-20 20:31N 35°11' E 139°46'713.5
2018-Feb-20 20:00N 35°05' E 139°43'713.3
2018-Feb-20 19:29N 35°00' E 139°37'3814.0
2018-Feb-20 16:46N 34°35' E 139°02'415.6
2018-Feb-20 16:30N 34°32' E 138°58'2715.7
2018-Feb-20 14:45N 34°21' E 138°28'715.5
2018-Feb-20 14:18N 34°18' E 138°20'  
2018-Feb-17 05:37N 24°32' E 118°48'1 9.9
2018-Feb-17 05:29N 24°31' E 118°47'5 9.9
2018-Feb-17 04:58N 24°28' E 118°42'4 9.5
2018-Feb-17 04:30N 24°26' E 118°39'6 9.8
2018-Feb-17 03:56N 24°22' E 118°34'4 9.9
2018-Feb-17 03:30N 24°20' E 118°30'510.3
2018-Feb-17 02:59N 24°16' E 118°26'510.6
2018-Feb-17 02:28N 24°11' E 118°22'511.5
2018-Feb-17 02:00N 24°07' E 118°19'4212.0
2018-Feb-16 22:28N 23°34' E 117°50'912.0
2018-Feb-16 21:44N 23°29' E 117°42'312.4
2018-Feb-16 21:30N 23°27' E 117°40'  
Track history (hours):
 
Tides and Currents Weather Stations Pressure Air Temp Water Temp Dewpoint Dewpoint Depression Visibility Wind Speed Wind Dir Waves Ship Positions

Sitc Kaohsiung

Last reported at 2018-Feb-20 22:58 UTC. Time now 2018-Feb-20 23:27 UTC.
Position N 35°36' E 139°46'.

Length 140 m; draft 6.8 m.

Type: Ship (hazmat cat A). MMSI: 372748000.

Date/timePositionNaut miles runAvg speedWind from/ knotsBaromVisibWave heightAir tempDewpointWater temp
2018-Feb-20 22:58N 35°36' E 139°46'4 9.2
2018-Feb-20 22:30N 35°33' E 139°50'5 9.8
2018-Feb-20 22:00N 35°28' E 139°51'713.5
2018-Feb-20 21:30N 35°23' E 139°46'611.8
2018-Feb-20 21:00N 35°17' E 139°45'612.3
2018-Feb-20 20:31N 35°11' E 139°46'713.5
2018-Feb-20 20:00N 35°05' E 139°43'713.3
2018-Feb-20 19:29N 35°00' E 139°37'3814.0
2018-Feb-20 16:46N 34°35' E 139°02'415.6
2018-Feb-20 16:30N 34°32' E 138°58'2715.7
2018-Feb-20 14:45N 34°21' E 138°28'715.5
2018-Feb-20 14:18N 34°18' E 138°20'  
2018-Feb-17 05:37N 24°32' E 118°48'1 9.9
2018-Feb-17 05:29N 24°31' E 118°47'5 9.9
2018-Feb-17 04:58N 24°28' E 118°42'4 9.5
2018-Feb-17 04:30N 24°26' E 118°39'6 9.8
2018-Feb-17 03:56N 24°22' E 118°34'4 9.9
2018-Feb-17 03:30N 24°20' E 118°30'510.3
2018-Feb-17 02:59N 24°16' E 118°26'510.6
2018-Feb-17 02:28N 24°11' E 118°22'511.5
2018-Feb-17 02:00N 24°07' E 118°19'4212.0
2018-Feb-16 22:28N 23°34' E 117°50'912.0
2018-Feb-16 21:44N 23°29' E 117°42'312.4
2018-Feb-16 21:30N 23°27' E 117°40'  

Dump ship's entire track history